King of Scandinavia — OVOL2 — position and weather

sailwx.info

Track history (hours):
 
Tides and Currents Weather Stations Pressure Air Temp Water Temp Dewpoint Dewpoint Depression Visibility Wind Speed Wind Dir Waves Ship Positions

King of Scandinavia

Ship's website: http://www.dfds.co.uk/DSW/EN/OnBoard/na/KING.htm

Last reported at 2017-Apr-30 14:30 UTC. Time now 2017-Apr-30 14:53 UTC.
Position N 54°59' W 001°27'.

Length 166 m; beam 27.6 m; draft 6.2 m.

Type: Ship. MMSI: 220449000.

Date/timePositionNaut miles runAvg speedWind from/ knotsBaromVisibWave heightAir tempDewpointWater temp
2017-Apr-30 14:30N 54°59' W 001°27'0 0.0
2017-Apr-30 13:21N 54°59' W 001°27'0 0.0
2017-Apr-30 12:51N 54°59' W 001°27'0 0.0
2017-Apr-30 12:21N 54°59' W 001°27'0 0.0
2017-Apr-30 11:54N 54°59' W 001°27'0 0.0
2017-Apr-30 11:24N 54°59' W 001°27'0 0.0
2017-Apr-30 10:54N 54°59' W 001°27'0 0.0
2017-Apr-30 10:24N 54°59' W 001°27'0 0.0
2017-Apr-30 09:57N 54°59' W 001°27'0 0.0
2017-Apr-30 09:24N 54°59' W 001°27'0 0.0
2017-Apr-30 08:57N 54°59' W 001°27'0 0.0
2017-Apr-30 08:27N 54°59' W 001°27'0 0.0
2017-Apr-30 08:00N 54°59' W 001°27'2 3.9
2017-Apr-30 07:30N 55°01' W 001°24'612.7
2017-Apr-30 07:00N 54°58' W 001°14'713.7
2017-Apr-30 06:30N 54°54' W 001°04'713.4
2017-Apr-30 06:00N 54°51' W 000°55'2114.4
2017-Apr-30 04:31N 54°39' W 000°24'016.8
2017-Apr-30 04:30N 54°39' W 000°23'917.1
2017-Apr-30 03:59N 54°34' W 000°10'817.4
2017-Apr-30 03:30N 54°29' E 000°02'918.0
2017-Apr-30 03:00N 54°25' E 000°15'918.5
2017-Apr-30 02:30N 54°20' E 000°28'15117.2
2017-Apr-29 17:43N 52°49' E 003°52'415.8
2017-Apr-29 17:29N 52°47' E 003°56'715.2
2017-Apr-29 17:00N 52°42' E 004°05'815.1
2017-Apr-29 16:31N 52°37' E 004°15'815.4
2017-Apr-29 16:01N 52°32' E 004°24'714.1
2017-Apr-29 15:30N 52°28' E 004°33'1 2.2
2017-Apr-29 15:00N 52°28' E 004°35'0 0.0
2017-Apr-29 14:28N 52°28' E 004°35'0 0.0
2017-Apr-29 13:28N 52°28' E 004°35'0 0.0
2017-Apr-29 12:58N 52°28' E 004°35'0 0.0
2017-Apr-29 12:28N 52°28' E 004°35'0 0.0
2017-Apr-29 11:58N 52°28' E 004°35'0 0.0
2017-Apr-29 11:28N 52°28' E 004°35'0 0.0
2017-Apr-29 10:58N 52°28' E 004°35'0 0.0
2017-Apr-29 10:28N 52°28' E 004°35'0 0.0
2017-Apr-29 09:58N 52°28' E 004°35'0 0.0
2017-Apr-29 09:28N 52°28' E 004°35'0 0.0
2017-Apr-29 08:58N 52°28' E 004°35'0 0.0
2017-Apr-29 08:28N 52°28' E 004°35'0 0.0
2017-Apr-29 07:58N 52°28' E 004°35'0 0.2
2017-Apr-29 07:30N 52°28' E 004°35'5 9.8
2017-Apr-29 07:00N 52°29' E 004°27'816.1
2017-Apr-29 06:30N 52°35' E 004°18'816.5
2017-Apr-29 06:00N 52°41' E 004°09'816.6
2017-Apr-29 05:30N 52°46' E 003°58'916.6
2017-Apr-29 04:59N 52°52' E 003°47'917.6
2017-Apr-29 04:29N 52°58' E 003°36'11717.3
2017-Apr-28 21:42N 54°09' E 000°59'1217.4
2017-Apr-28 21:00N 54°15' E 000°41'817.3
2017-Apr-28 20:30N 54°20' E 000°29'917.4
2017-Apr-28 20:00N 54°24' E 000°16'917.7
2017-Apr-28 19:30N 54°29' E 000°03'917.9
2017-Apr-28 19:00N 54°34' W 000°10'918.1
2017-Apr-28 18:30N 54°39' W 000°23'2318.3
2017-Apr-28 17:16N 54°51' W 000°56'518.2
2017-Apr-28 17:00N 54°54' W 001°03'918.2
2017-Apr-28 16:30N 54°58' W 001°16'612.0
2017-Apr-28 16:00N 54°60' W 001°27'0 0.8
2017-Apr-28 15:30N 54°59' W 001°27'0 0.0
2017-Apr-28 14:59N 54°59' W 001°27'0 0.0
2017-Apr-28 13:59N 54°59' W 001°27'0 0.0
2017-Apr-28 13:29N 54°59' W 001°27'0 0.0
2017-Apr-28 12:53N 54°59' W 001°27'0 0.0
2017-Apr-28 12:23N 54°59' W 001°27'0 0.0
2017-Apr-28 11:56N 54°59' W 001°27'0 0.0
2017-Apr-28 11:26N 54°59' W 001°27'0 0.0
2017-Apr-28 10:56N 54°59' W 001°27'0 0.0
2017-Apr-28 10:26N 54°59' W 001°27'0 0.0
2017-Apr-28 09:56N 54°59' W 001°27'0 0.0
2017-Apr-28 09:29N 54°59' W 001°27'0 0.0
2017-Apr-28 08:59N 54°59' W 001°27'0 0.0
2017-Apr-28 08:29N 54°59' W 001°27'0 0.1
2017-Apr-28 08:00N 54°59' W 001°27'4 7.2
2017-Apr-28 07:30N 55°01' W 001°21'816.4
2017-Apr-28 07:01N 54°56' W 001°10'917.8
2017-Apr-28 06:30N 54°51' W 000°57'917.7
2017-Apr-28 05:59N 54°47' W 000°43'1317.2
2017-Apr-28 05:14N 54°40' W 000°24'416.6
2017-Apr-28 04:58N 54°37' W 000°17'715.0
2017-Apr-28 04:30N 54°34' W 000°07'714.8
2017-Apr-28 04:00N 54°30' E 000°03'714.9
2017-Apr-28 03:30N 54°25' E 000°14'815.1
2017-Apr-28 03:00N 54°21' E 000°25'15817.1
2017-Apr-27 17:45N 52°47' E 003°59'416.8
2017-Apr-27 17:30N 52°44' E 004°03'816.7
2017-Apr-27 17:00N 52°38' E 004°13'816.9
2017-Apr-27 16:30N 52°33' E 004°24'815.9
2017-Apr-27 16:00N 52°28' E 004°34'0 1.0
2017-Apr-27 15:30N 52°28' E 004°35'0 0.0
2017-Apr-27 15:00N 52°28' E 004°35'0 0.0
2017-Apr-27 13:59N 52°28' E 004°35'0 0.0
2017-Apr-27 13:29N 52°28' E 004°35'0 0.0
2017-Apr-27 12:59N 52°28' E 004°35'0 0.0
2017-Apr-27 12:29N 52°28' E 004°35'0 0.0
2017-Apr-27 11:59N 52°28' E 004°35'0 0.0
2017-Apr-27 11:29N 52°28' E 004°35'0 0.0
2017-Apr-27 10:59N 52°28' E 004°35'0 0.0
2017-Apr-27 10:29N 52°28' E 004°35'0 0.0
2017-Apr-27 09:59N 52°28' E 004°35'0 0.0
2017-Apr-27 09:29N 52°28' E 004°35'0 0.0
2017-Apr-27 08:59N 52°28' E 004°35'0 0.0
2017-Apr-27 08:29N 52°28' E 004°35'0 0.0
2017-Apr-27 07:59N 52°28' E 004°35'0 0.1
2017-Apr-27 07:30N 52°28' E 004°35'4 8.3
2017-Apr-27 07:01N 52°29' E 004°28'917.4
2017-Apr-27 06:30N 52°35' E 004°19'917.4
2017-Apr-27 06:00N 52°40' E 004°07'816.9
2017-Apr-27 05:31N 52°46' E 003°58'15116.6
2017-Apr-26 20:27N 54°17' E 000°36'716.7
2017-Apr-26 20:01N 54°21' E 000°25'817.0
2017-Apr-26 19:30N 54°26' E 000°13'918.8
2017-Apr-26 19:01N 54°31' W 000°01'1019.2
2017-Apr-26 18:31N 54°36' W 000°15'1019.6
2017-Apr-26 18:01N 54°41' W 000°29'1919.7
2017-Apr-26 17:02N 54°51' W 000°57'119.7
2017-Apr-26 17:00N 54°52' W 000°58'1019.8
2017-Apr-26 16:31N 54°57' W 001°12'816.7
2017-Apr-26 16:00N 55°01' W 001°26'1 2.7
2017-Apr-26 15:30N 54°59' W 001°27'0 0.0
2017-Apr-26 15:01N 54°59' W 001°27'0 0.0
2017-Apr-26 14:08N 54°59' W 001°27'0 0.0
2017-Apr-26 13:26N 54°59' W 001°27'0 0.0
2017-Apr-26 12:56N 54°59' W 001°27'0 0.0
2017-Apr-26 12:26N 54°59' W 001°27'0 0.0
2017-Apr-26 11:56N 54°59' W 001°27'0 0.0
2017-Apr-26 11:26N 54°59' W 001°27'0 0.0
2017-Apr-26 10:56N 54°59' W 001°27'0 0.0
2017-Apr-26 10:29N 54°59' W 001°27'0 0.0
2017-Apr-26 09:59N 54°59' W 001°27'0 0.0
2017-Apr-26 09:29N 54°59' W 001°27'0 0.0
2017-Apr-26 08:59N 54°59' W 001°27'0 0.0
2017-Apr-26 08:29N 54°59' W 001°27'1 1.9
2017-Apr-26 08:00N 55°00' W 001°26'815.1
2017-Apr-26 07:31N 54°58' W 001°14'917.9
2017-Apr-26 07:00N 54°54' W 001°00'2416.9
2017-Apr-26 05:34N 54°41' W 000°24'216.4
2017-Apr-26 05:28N 54°40' W 000°21'715.6
2017-Apr-26 05:01N 54°35' W 000°13'816.0
2017-Apr-26 04:31N 54°31' W 000°01'815.7
2017-Apr-26 04:01N 54°27' E 000°10'816.0
2017-Apr-26 03:31N 54°22' E 000°22'13416.8
2017-Apr-25 19:33N 53°03' E 003°24'115.4
2017-Apr-25 19:30N 53°03' E 003°25'815.3
2017-Apr-25 19:00N 52°58' E 003°34'815.8
2017-Apr-25 18:30N 52°53' E 003°45'815.6
2017-Apr-25 17:59N 52°48' E 003°56'715.3
2017-Apr-25 17:31N 52°43' E 004°05'815.6
2017-Apr-25 17:00N 52°39' E 004°15'815.9
2017-Apr-25 16:31N 52°33' E 004°23'815.7
2017-Apr-25 16:00N 52°28' E 004°33'1 2.1
2017-Apr-25 15:30N 52°28' E 004°35'0 0.0
2017-Apr-25 15:00N 52°28' E 004°35'0 0.0
2017-Apr-25 14:30N 52°28' E 004°35'0 0.0
2017-Apr-25 13:30N 52°28' E 004°35'0 0.0
2017-Apr-25 13:00N 52°28' E 004°35'0 0.0
2017-Apr-25 12:30N 52°28' E 004°35'0 0.0
2017-Apr-25 12:00N 52°28' E 004°35'0 0.0
2017-Apr-25 11:30N 52°28' E 004°35'0 0.0
2017-Apr-25 11:00N 52°28' E 004°35'0 0.0
2017-Apr-25 10:30N 52°28' E 004°35'0 0.0
2017-Apr-25 10:00N 52°28' E 004°35'0 0.0
2017-Apr-25 09:30N 52°28' E 004°35'0 0.0
2017-Apr-25 09:00N 52°28' E 004°35'0 0.4
2017-Apr-25 08:30N 52°28' E 004°35'5 9.8
2017-Apr-25 08:00N 52°29' E 004°27'510.7
2017-Apr-25 07:30N 52°33' E 004°22'510.7
2017-Apr-25 07:00N 52°37' E 004°16'611.8
2017-Apr-25 06:31N 52°40' E 004°08'510.6
2017-Apr-25 06:01N 52°44' E 004°02'611.5
2017-Apr-25 05:31N 52°48' E 003°55'14817.7
2017-Apr-24 21:10N 54°17' E 000°37'316.3
2017-Apr-24 21:01N 54°18' E 000°33'816.3
2017-Apr-24 20:31N 54°22' E 000°21'816.8
2017-Apr-24 20:00N 54°27' E 000°09'816.8
2017-Apr-24 19:31N 54°32' W 000°03'916.9
2017-Apr-24 19:00N 54°36' W 000°16'817.0
2017-Apr-24 18:31N 54°40' W 000°29'1617.2
2017-Apr-24 17:33N 54°49' W 000°53'117.6
2017-Apr-24 17:30N 54°49' W 000°54'917.6
2017-Apr-24 17:00N 54°55' W 001°06'917.8
2017-Apr-24 16:31N 54°59' W 001°19'5 9.1
2017-Apr-24 16:01N 54°59' W 001°27'0 0.2
2017-Apr-24 15:30N 54°59' W 001°27'0 0.0
2017-Apr-24 14:59N 54°59' W 001°27'0 0.0
2017-Apr-24 14:26N 54°59' W 001°27'0 0.0
2017-Apr-24 13:29N 54°59' W 001°27'0 0.0
2017-Apr-24 12:56N 54°59' W 001°27'0 0.0
2017-Apr-24 12:26N 54°59' W 001°27'0 0.0
2017-Apr-24 11:59N 54°59' W 001°27'0 0.0
2017-Apr-24 11:29N 54°59' W 001°27'0 0.0
2017-Apr-24 10:56N 54°59' W 001°27'0 0.0
2017-Apr-24 10:29N 54°59' W 001°27'0 0.0
2017-Apr-24 09:59N 54°59' W 001°27'0 0.0
2017-Apr-24 09:29N 54°59' W 001°27'0 0.0
2017-Apr-24 09:00N 54°59' W 001°27'4 7.2
2017-Apr-24 08:30N 55°01' W 001°21'1019.3
2017-Apr-24 08:01N 54°55' W 001°07'1019.4
2017-Apr-24 07:30N 54°49' W 000°53'2018.3
2017-Apr-24 06:23N 54°38' W 000°24'616.4
2017-Apr-24 06:00N 54°35' W 000°15'816.1
2017-Apr-24 05:30N 54°31' W 000°03'815.8
2017-Apr-24 05:00N 54°27' E 000°09'815.4
2017-Apr-24 04:30N 54°22' E 000°20'815.1
2017-Apr-24 04:00N 54°18' E 000°31'814.8
2017-Apr-24 03:29N 54°14' E 000°42'15714.6
2017-Apr-23 16:44N 52°39' E 004°12'416.3
2017-Apr-23 16:27N 52°36' E 004°17'716.5
2017-Apr-23 16:00N 52°31' E 004°26'612.5
2017-Apr-23 15:30N 52°28' E 004°35'0 0.1
2017-Apr-23 15:00N 52°28' E 004°35'0 0.0
2017-Apr-23 13:59N 52°28' E 004°35'0 0.0
2017-Apr-23 13:29N 52°28' E 004°35'0 0.0
2017-Apr-23 12:59N 52°28' E 004°35'0 0.0
2017-Apr-23 12:26N 52°28' E 004°35'0 0.0
2017-Apr-23 11:56N 52°28' E 004°35'0 0.0
2017-Apr-23 11:29N 52°28' E 004°35'0 0.0
2017-Apr-23 10:59N 52°28' E 004°35'0 0.0
2017-Apr-23 10:26N 52°28' E 004°35'0 0.0
2017-Apr-23 09:59N 52°28' E 004°35'0 0.0
2017-Apr-23 09:29N 52°28' E 004°35'0 0.0
2017-Apr-23 08:53N 52°28' E 004°35'0 0.0
2017-Apr-23 08:29N 52°28' E 004°35'0 0.0
2017-Apr-23 07:59N 52°28' E 004°35'0 0.3
2017-Apr-23 07:30N 52°28' E 004°35'611.3
2017-Apr-23 07:01N 52°30' E 004°26'816.8
2017-Apr-23 06:31N 52°36' E 004°17'16617.9
2017-Apr-22 21:13N 54°17' E 000°36'316.6
2017-Apr-22 21:01N 54°19' E 000°31'816.5
2017-Apr-22 20:31N 54°23' E 000°19'816.4
2017-Apr-22 20:01N 54°28' E 000°07'816.3
2017-Apr-22 19:31N 54°32' W 000°05'816.6
2017-Apr-22 19:01N 54°37' W 000°17'816.4
2017-Apr-22 18:30N 54°41' W 000°29'1816.6
2017-Apr-22 17:25N 54°51' W 000°55'716.9
2017-Apr-22 17:00N 54°54' W 001°05'816.9
2017-Apr-22 16:30N 54°59' W 001°18'510.6
2017-Apr-22 16:00N 54°60' W 001°27'0 0.5
2017-Apr-22 15:31N 54°59' W 001°27'0 0.0
2017-Apr-22 15:00N 54°59' W 001°27'0 0.0
2017-Apr-22 14:24N 54°59' W 001°27'0 0.0
2017-Apr-22 13:27N 54°59' W 001°27'0 0.0
2017-Apr-22 12:57N 54°59' W 001°27'0 0.0
2017-Apr-22 12:30N 54°59' W 001°27'0 0.0
2017-Apr-22 11:57N 54°59' W 001°27'0 0.0
2017-Apr-22 11:30N 54°59' W 001°27'0 0.0
2017-Apr-22 11:01N 54°59' W 001°27'0 0.0
2017-Apr-22 10:30N 54°59' W 001°27'0 0.0
2017-Apr-22 10:00N 54°59' W 001°27'0 0.0
2017-Apr-22 09:30N 54°59' W 001°27'0 0.0
2017-Apr-22 08:49N 54°59' W 001°27'0 0.0
2017-Apr-22 08:19N 54°59' W 001°27'0 0.8
2017-Apr-22 08:00N 54°60' W 001°27'5 9.1
2017-Apr-22 07:30N 54°60' W 001°19'917.5
2017-Apr-22 07:00N 54°55' W 001°06'817.1
2017-Apr-22 06:31N 54°50' W 000°54'916.9
2017-Apr-22 06:00N 54°46' W 000°41'1217.2
2017-Apr-22 05:19N 54°39' W 000°24'517.1
2017-Apr-22 05:00N 54°37' W 000°16'816.8
2017-Apr-22 04:30N 54°32' W 000°04'816.8
2017-Apr-22 04:00N 54°28' E 000°08'816.6
2017-Apr-22 03:30N 54°23' E 000°20'916.6
2017-Apr-22 02:59N 54°18' E 000°33'14717.1
2017-Apr-21 18:22N 52°50' E 003°51'616.6
2017-Apr-21 18:00N 52°46' E 003°58'816.5
2017-Apr-21 17:30N 52°40' E 004°08'815.1
2017-Apr-21 17:00N 52°36' E 004°18'713.6
2017-Apr-21 16:30N 52°31' E 004°26'612.2
2017-Apr-21 16:01N 52°28' E 004°35'0 0.5
2017-Apr-21 15:29N 52°28' E 004°35'0 0.0
2017-Apr-21 14:59N 52°28' E 004°35'0 0.0
2017-Apr-21 14:29N 52°28' E 004°35'0 0.0
2017-Apr-21 13:29N 52°28' E 004°35'0 0.0
2017-Apr-21 12:53N 52°28' E 004°35'0 0.0
2017-Apr-21 12:29N 52°28' E 004°35'0 0.0
2017-Apr-21 11:59N 52°28' E 004°35'0 0.0
2017-Apr-21 11:29N 52°28' E 004°35'0 0.0
2017-Apr-21 10:59N 52°28' E 004°35'0 0.0
2017-Apr-21 10:29N 52°28' E 004°35'0 0.0
2017-Apr-21 09:59N 52°28' E 004°35'0 0.0
2017-Apr-21 09:29N 52°28' E 004°35'0 0.0
2017-Apr-21 08:59N 52°28' E 004°35'0 0.0
2017-Apr-21 08:29N 52°28' E 004°35'0 0.0
2017-Apr-21 07:50N 52°28' E 004°35'0 0.4
2017-Apr-21 07:30N 52°28' E 004°35'611.1
2017-Apr-21 07:00N 52°30' E 004°26'816.2
2017-Apr-21 06:31N 52°36' E 004°17'815.2
2017-Apr-21 06:00N 52°40' E 004°07'815.4
2017-Apr-21 05:30N 52°46' E 003°58'815.6
2017-Apr-21 05:00N 52°51' E 003°49'14118.1
2017-Apr-20 21:13N 54°16' E 000°39'418.0
2017-Apr-20 21:00N 54°18' E 000°33'918.0
2017-Apr-20 20:30N 54°23' E 000°20'917.9
2017-Apr-20 20:00N 54°28' E 000°07'917.8
2017-Apr-20 19:30N 54°33' W 000°06'917.7
2017-Apr-20 19:00N 54°37' W 000°19'2217.6
2017-Apr-20 17:47N 54°49' W 000°50'517.7
2017-Apr-20 17:30N 54°52' W 000°57'917.7
2017-Apr-20 17:00N 54°57' W 001°10'917.6
2017-Apr-20 16:31N 55°01' W 001°23'3 4.7
2017-Apr-20 15:58N 54°59' W 001°27'0 0.0
2017-Apr-20 15:28N 54°59' W 001°27'0 0.0
2017-Apr-20 14:55N 54°59' W 001°27'  
Track history (hours):
 
Tides and Currents Weather Stations Pressure Air Temp Water Temp Dewpoint Dewpoint Depression Visibility Wind Speed Wind Dir Waves Ship Positions

King of Scandinavia

Ship's website: http://www.dfds.co.uk/DSW/EN/OnBoard/na/KING.htm

Last reported at 2017-Apr-30 14:30 UTC. Time now 2017-Apr-30 14:53 UTC.
Position N 54°59' W 001°27'.

Length 166 m; beam 27.6 m; draft 6.2 m.

Type: Ship. MMSI: 220449000.

Date/timePositionNaut miles runAvg speedWind from/ knotsBaromVisibWave heightAir tempDewpointWater temp
2017-Apr-30 14:30N 54°59' W 001°27'0 0.0
2017-Apr-30 13:21N 54°59' W 001°27'0 0.0
2017-Apr-30 12:51N 54°59' W 001°27'0 0.0
2017-Apr-30 12:21N 54°59' W 001°27'0 0.0
2017-Apr-30 11:54N 54°59' W 001°27'0 0.0
2017-Apr-30 11:24N 54°59' W 001°27'0 0.0
2017-Apr-30 10:54N 54°59' W 001°27'0 0.0
2017-Apr-30 10:24N 54°59' W 001°27'0 0.0
2017-Apr-30 09:57N 54°59' W 001°27'0 0.0
2017-Apr-30 09:24N 54°59' W 001°27'0 0.0
2017-Apr-30 08:57N 54°59' W 001°27'0 0.0
2017-Apr-30 08:27N 54°59' W 001°27'0 0.0
2017-Apr-30 08:00N 54°59' W 001°27'2 3.9
2017-Apr-30 07:30N 55°01' W 001°24'612.7
2017-Apr-30 07:00N 54°58' W 001°14'713.7
2017-Apr-30 06:30N 54°54' W 001°04'713.4
2017-Apr-30 06:00N 54°51' W 000°55'2114.4
2017-Apr-30 04:31N 54°39' W 000°24'016.8
2017-Apr-30 04:30N 54°39' W 000°23'917.1
2017-Apr-30 03:59N 54°34' W 000°10'817.4
2017-Apr-30 03:30N 54°29' E 000°02'918.0
2017-Apr-30 03:00N 54°25' E 000°15'918.5
2017-Apr-30 02:30N 54°20' E 000°28'15117.2
2017-Apr-29 17:43N 52°49' E 003°52'415.8
2017-Apr-29 17:29N 52°47' E 003°56'715.2
2017-Apr-29 17:00N 52°42' E 004°05'815.1
2017-Apr-29 16:31N 52°37' E 004°15'815.4
2017-Apr-29 16:01N 52°32' E 004°24'714.1
2017-Apr-29 15:30N 52°28' E 004°33'1 2.2
2017-Apr-29 15:00N 52°28' E 004°35'0 0.0
2017-Apr-29 14:28N 52°28' E 004°35'0 0.0
2017-Apr-29 13:28N 52°28' E 004°35'0 0.0
2017-Apr-29 12:58N 52°28' E 004°35'0 0.0
2017-Apr-29 12:28N 52°28' E 004°35'0 0.0
2017-Apr-29 11:58N 52°28' E 004°35'0 0.0
2017-Apr-29 11:28N 52°28' E 004°35'0 0.0
2017-Apr-29 10:58N 52°28' E 004°35'0 0.0
2017-Apr-29 10:28N 52°28' E 004°35'0 0.0
2017-Apr-29 09:58N 52°28' E 004°35'0 0.0
2017-Apr-29 09:28N 52°28' E 004°35'0 0.0
2017-Apr-29 08:58N 52°28' E 004°35'0 0.0
2017-Apr-29 08:28N 52°28' E 004°35'0 0.0
2017-Apr-29 07:58N 52°28' E 004°35'0 0.2
2017-Apr-29 07:30N 52°28' E 004°35'5 9.8
2017-Apr-29 07:00N 52°29' E 004°27'816.1
2017-Apr-29 06:30N 52°35' E 004°18'816.5
2017-Apr-29 06:00N 52°41' E 004°09'816.6
2017-Apr-29 05:30N 52°46' E 003°58'916.6
2017-Apr-29 04:59N 52°52' E 003°47'917.6
2017-Apr-29 04:29N 52°58' E 003°36'11717.3
2017-Apr-28 21:42N 54°09' E 000°59'1217.4
2017-Apr-28 21:00N 54°15' E 000°41'817.3
2017-Apr-28 20:30N 54°20' E 000°29'917.4
2017-Apr-28 20:00N 54°24' E 000°16'917.7
2017-Apr-28 19:30N 54°29' E 000°03'917.9
2017-Apr-28 19:00N 54°34' W 000°10'918.1
2017-Apr-28 18:30N 54°39' W 000°23'2318.3
2017-Apr-28 17:16N 54°51' W 000°56'518.2
2017-Apr-28 17:00N 54°54' W 001°03'918.2
2017-Apr-28 16:30N 54°58' W 001°16'612.0
2017-Apr-28 16:00N 54°60' W 001°27'0 0.8
2017-Apr-28 15:30N 54°59' W 001°27'0 0.0
2017-Apr-28 14:59N 54°59' W 001°27'0 0.0
2017-Apr-28 13:59N 54°59' W 001°27'0 0.0
2017-Apr-28 13:29N 54°59' W 001°27'0 0.0
2017-Apr-28 12:53N 54°59' W 001°27'0 0.0
2017-Apr-28 12:23N 54°59' W 001°27'0 0.0
2017-Apr-28 11:56N 54°59' W 001°27'0 0.0
2017-Apr-28 11:26N 54°59' W 001°27'0 0.0
2017-Apr-28 10:56N 54°59' W 001°27'0 0.0
2017-Apr-28 10:26N 54°59' W 001°27'0 0.0
2017-Apr-28 09:56N 54°59' W 001°27'0 0.0
2017-Apr-28 09:29N 54°59' W 001°27'0 0.0
2017-Apr-28 08:59N 54°59' W 001°27'0 0.0
2017-Apr-28 08:29N 54°59' W 001°27'0 0.1
2017-Apr-28 08:00N 54°59' W 001°27'4 7.2
2017-Apr-28 07:30N 55°01' W 001°21'816.4
2017-Apr-28 07:01N 54°56' W 001°10'917.8
2017-Apr-28 06:30N 54°51' W 000°57'917.7
2017-Apr-28 05:59N 54°47' W 000°43'1317.2
2017-Apr-28 05:14N 54°40' W 000°24'416.6
2017-Apr-28 04:58N 54°37' W 000°17'715.0
2017-Apr-28 04:30N 54°34' W 000°07'714.8
2017-Apr-28 04:00N 54°30' E 000°03'714.9
2017-Apr-28 03:30N 54°25' E 000°14'815.1
2017-Apr-28 03:00N 54°21' E 000°25'15817.1
2017-Apr-27 17:45N 52°47' E 003°59'416.8
2017-Apr-27 17:30N 52°44' E 004°03'816.7
2017-Apr-27 17:00N 52°38' E 004°13'816.9
2017-Apr-27 16:30N 52°33' E 004°24'815.9
2017-Apr-27 16:00N 52°28' E 004°34'0 1.0
2017-Apr-27 15:30N 52°28' E 004°35'0 0.0
2017-Apr-27 15:00N 52°28' E 004°35'0 0.0
2017-Apr-27 13:59N 52°28' E 004°35'0 0.0
2017-Apr-27 13:29N 52°28' E 004°35'0 0.0
2017-Apr-27 12:59N 52°28' E 004°35'0 0.0
2017-Apr-27 12:29N 52°28' E 004°35'0 0.0
2017-Apr-27 11:59N 52°28' E 004°35'0 0.0
2017-Apr-27 11:29N 52°28' E 004°35'0 0.0
2017-Apr-27 10:59N 52°28' E 004°35'0 0.0
2017-Apr-27 10:29N 52°28' E 004°35'0 0.0
2017-Apr-27 09:59N 52°28' E 004°35'0 0.0
2017-Apr-27 09:29N 52°28' E 004°35'0 0.0
2017-Apr-27 08:59N 52°28' E 004°35'0 0.0
2017-Apr-27 08:29N 52°28' E 004°35'0 0.0
2017-Apr-27 07:59N 52°28' E 004°35'0 0.1
2017-Apr-27 07:30N 52°28' E 004°35'4 8.3
2017-Apr-27 07:01N 52°29' E 004°28'917.4
2017-Apr-27 06:30N 52°35' E 004°19'917.4
2017-Apr-27 06:00N 52°40' E 004°07'816.9
2017-Apr-27 05:31N 52°46' E 003°58'15116.6
2017-Apr-26 20:27N 54°17' E 000°36'716.7
2017-Apr-26 20:01N 54°21' E 000°25'817.0
2017-Apr-26 19:30N 54°26' E 000°13'918.8
2017-Apr-26 19:01N 54°31' W 000°01'1019.2
2017-Apr-26 18:31N 54°36' W 000°15'1019.6
2017-Apr-26 18:01N 54°41' W 000°29'1919.7
2017-Apr-26 17:02N 54°51' W 000°57'119.7
2017-Apr-26 17:00N 54°52' W 000°58'1019.8
2017-Apr-26 16:31N 54°57' W 001°12'816.7
2017-Apr-26 16:00N 55°01' W 001°26'1 2.7
2017-Apr-26 15:30N 54°59' W 001°27'0 0.0
2017-Apr-26 15:01N 54°59' W 001°27'0 0.0
2017-Apr-26 14:08N 54°59' W 001°27'0 0.0
2017-Apr-26 13:26N 54°59' W 001°27'0 0.0
2017-Apr-26 12:56N 54°59' W 001°27'0 0.0
2017-Apr-26 12:26N 54°59' W 001°27'0 0.0
2017-Apr-26 11:56N 54°59' W 001°27'0 0.0
2017-Apr-26 11:26N 54°59' W 001°27'0 0.0
2017-Apr-26 10:56N 54°59' W 001°27'0 0.0
2017-Apr-26 10:29N 54°59' W 001°27'0 0.0
2017-Apr-26 09:59N 54°59' W 001°27'0 0.0
2017-Apr-26 09:29N 54°59' W 001°27'0 0.0
2017-Apr-26 08:59N 54°59' W 001°27'0 0.0
2017-Apr-26 08:29N 54°59' W 001°27'1 1.9
2017-Apr-26 08:00N 55°00' W 001°26'815.1
2017-Apr-26 07:31N 54°58' W 001°14'917.9
2017-Apr-26 07:00N 54°54' W 001°00'2416.9
2017-Apr-26 05:34N 54°41' W 000°24'216.4
2017-Apr-26 05:28N 54°40' W 000°21'715.6
2017-Apr-26 05:01N 54°35' W 000°13'816.0
2017-Apr-26 04:31N 54°31' W 000°01'815.7
2017-Apr-26 04:01N 54°27' E 000°10'816.0
2017-Apr-26 03:31N 54°22' E 000°22'13416.8
2017-Apr-25 19:33N 53°03' E 003°24'115.4
2017-Apr-25 19:30N 53°03' E 003°25'815.3
2017-Apr-25 19:00N 52°58' E 003°34'815.8
2017-Apr-25 18:30N 52°53' E 003°45'815.6
2017-Apr-25 17:59N 52°48' E 003°56'715.3
2017-Apr-25 17:31N 52°43' E 004°05'815.6
2017-Apr-25 17:00N 52°39' E 004°15'815.9
2017-Apr-25 16:31N 52°33' E 004°23'815.7
2017-Apr-25 16:00N 52°28' E 004°33'1 2.1
2017-Apr-25 15:30N 52°28' E 004°35'0 0.0
2017-Apr-25 15:00N 52°28' E 004°35'0 0.0
2017-Apr-25 14:30N 52°28' E 004°35'0 0.0
2017-Apr-25 13:30N 52°28' E 004°35'0 0.0
2017-Apr-25 13:00N 52°28' E 004°35'0 0.0
2017-Apr-25 12:30N 52°28' E 004°35'0 0.0
2017-Apr-25 12:00N 52°28' E 004°35'0 0.0
2017-Apr-25 11:30N 52°28' E 004°35'0 0.0
2017-Apr-25 11:00N 52°28' E 004°35'0 0.0
2017-Apr-25 10:30N 52°28' E 004°35'0 0.0
2017-Apr-25 10:00N 52°28' E 004°35'0 0.0
2017-Apr-25 09:30N 52°28' E 004°35'0 0.0
2017-Apr-25 09:00N 52°28' E 004°35'0 0.4
2017-Apr-25 08:30N 52°28' E 004°35'5 9.8
2017-Apr-25 08:00N 52°29' E 004°27'510.7
2017-Apr-25 07:30N 52°33' E 004°22'510.7
2017-Apr-25 07:00N 52°37' E 004°16'611.8
2017-Apr-25 06:31N 52°40' E 004°08'510.6
2017-Apr-25 06:01N 52°44' E 004°02'611.5
2017-Apr-25 05:31N 52°48' E 003°55'14817.7
2017-Apr-24 21:10N 54°17' E 000°37'316.3
2017-Apr-24 21:01N 54°18' E 000°33'816.3
2017-Apr-24 20:31N 54°22' E 000°21'816.8
2017-Apr-24 20:00N 54°27' E 000°09'816.8
2017-Apr-24 19:31N 54°32' W 000°03'916.9
2017-Apr-24 19:00N 54°36' W 000°16'817.0
2017-Apr-24 18:31N 54°40' W 000°29'1617.2
2017-Apr-24 17:33N 54°49' W 000°53'117.6
2017-Apr-24 17:30N 54°49' W 000°54'917.6
2017-Apr-24 17:00N 54°55' W 001°06'917.8
2017-Apr-24 16:31N 54°59' W 001°19'5 9.1
2017-Apr-24 16:01N 54°59' W 001°27'0 0.2
2017-Apr-24 15:30N 54°59' W 001°27'0 0.0
2017-Apr-24 14:59N 54°59' W 001°27'0 0.0
2017-Apr-24 14:26N 54°59' W 001°27'0 0.0
2017-Apr-24 13:29N 54°59' W 001°27'0 0.0
2017-Apr-24 12:56N 54°59' W 001°27'0 0.0
2017-Apr-24 12:26N 54°59' W 001°27'0 0.0
2017-Apr-24 11:59N 54°59' W 001°27'0 0.0
2017-Apr-24 11:29N 54°59' W 001°27'0 0.0
2017-Apr-24 10:56N 54°59' W 001°27'0 0.0
2017-Apr-24 10:29N 54°59' W 001°27'0 0.0
2017-Apr-24 09:59N 54°59' W 001°27'0 0.0
2017-Apr-24 09:29N 54°59' W 001°27'0 0.0
2017-Apr-24 09:00N 54°59' W 001°27'4 7.2
2017-Apr-24 08:30N 55°01' W 001°21'1019.3
2017-Apr-24 08:01N 54°55' W 001°07'1019.4
2017-Apr-24 07:30N 54°49' W 000°53'2018.3
2017-Apr-24 06:23N 54°38' W 000°24'616.4
2017-Apr-24 06:00N 54°35' W 000°15'816.1
2017-Apr-24 05:30N 54°31' W 000°03'815.8
2017-Apr-24 05:00N 54°27' E 000°09'815.4
2017-Apr-24 04:30N 54°22' E 000°20'815.1
2017-Apr-24 04:00N 54°18' E 000°31'814.8
2017-Apr-24 03:29N 54°14' E 000°42'15714.6
2017-Apr-23 16:44N 52°39' E 004°12'416.3
2017-Apr-23 16:27N 52°36' E 004°17'716.5
2017-Apr-23 16:00N 52°31' E 004°26'612.5
2017-Apr-23 15:30N 52°28' E 004°35'0 0.1
2017-Apr-23 15:00N 52°28' E 004°35'0 0.0
2017-Apr-23 13:59N 52°28' E 004°35'0 0.0
2017-Apr-23 13:29N 52°28' E 004°35'0 0.0
2017-Apr-23 12:59N 52°28' E 004°35'0 0.0
2017-Apr-23 12:26N 52°28' E 004°35'0 0.0
2017-Apr-23 11:56N 52°28' E 004°35'0 0.0
2017-Apr-23 11:29N 52°28' E 004°35'0 0.0
2017-Apr-23 10:59N 52°28' E 004°35'0 0.0
2017-Apr-23 10:26N 52°28' E 004°35'0 0.0
2017-Apr-23 09:59N 52°28' E 004°35'0 0.0
2017-Apr-23 09:29N 52°28' E 004°35'0 0.0
2017-Apr-23 08:53N 52°28' E 004°35'0 0.0
2017-Apr-23 08:29N 52°28' E 004°35'0 0.0
2017-Apr-23 07:59N 52°28' E 004°35'0 0.3
2017-Apr-23 07:30N 52°28' E 004°35'611.3
2017-Apr-23 07:01N 52°30' E 004°26'816.8
2017-Apr-23 06:31N 52°36' E 004°17'16617.9
2017-Apr-22 21:13N 54°17' E 000°36'316.6
2017-Apr-22 21:01N 54°19' E 000°31'816.5
2017-Apr-22 20:31N 54°23' E 000°19'816.4
2017-Apr-22 20:01N 54°28' E 000°07'816.3
2017-Apr-22 19:31N 54°32' W 000°05'816.6
2017-Apr-22 19:01N 54°37' W 000°17'816.4
2017-Apr-22 18:30N 54°41' W 000°29'1816.6
2017-Apr-22 17:25N 54°51' W 000°55'716.9
2017-Apr-22 17:00N 54°54' W 001°05'816.9
2017-Apr-22 16:30N 54°59' W 001°18'510.6
2017-Apr-22 16:00N 54°60' W 001°27'0 0.5
2017-Apr-22 15:31N 54°59' W 001°27'0 0.0
2017-Apr-22 15:00N 54°59' W 001°27'0 0.0
2017-Apr-22 14:24N 54°59' W 001°27'0 0.0
2017-Apr-22 13:27N 54°59' W 001°27'0 0.0
2017-Apr-22 12:57N 54°59' W 001°27'0 0.0
2017-Apr-22 12:30N 54°59' W 001°27'0 0.0
2017-Apr-22 11:57N 54°59' W 001°27'0 0.0
2017-Apr-22 11:30N 54°59' W 001°27'0 0.0
2017-Apr-22 11:01N 54°59' W 001°27'0 0.0
2017-Apr-22 10:30N 54°59' W 001°27'0 0.0
2017-Apr-22 10:00N 54°59' W 001°27'0 0.0
2017-Apr-22 09:30N 54°59' W 001°27'0 0.0
2017-Apr-22 08:49N 54°59' W 001°27'0 0.0
2017-Apr-22 08:19N 54°59' W 001°27'0 0.8
2017-Apr-22 08:00N 54°60' W 001°27'5 9.1
2017-Apr-22 07:30N 54°60' W 001°19'917.5
2017-Apr-22 07:00N 54°55' W 001°06'817.1
2017-Apr-22 06:31N 54°50' W 000°54'916.9
2017-Apr-22 06:00N 54°46' W 000°41'1217.2
2017-Apr-22 05:19N 54°39' W 000°24'517.1
2017-Apr-22 05:00N 54°37' W 000°16'816.8
2017-Apr-22 04:30N 54°32' W 000°04'816.8
2017-Apr-22 04:00N 54°28' E 000°08'816.6
2017-Apr-22 03:30N 54°23' E 000°20'916.6
2017-Apr-22 02:59N 54°18' E 000°33'14717.1
2017-Apr-21 18:22N 52°50' E 003°51'616.6
2017-Apr-21 18:00N 52°46' E 003°58'816.5
2017-Apr-21 17:30N 52°40' E 004°08'815.1
2017-Apr-21 17:00N 52°36' E 004°18'713.6
2017-Apr-21 16:30N 52°31' E 004°26'612.2
2017-Apr-21 16:01N 52°28' E 004°35'0 0.5
2017-Apr-21 15:29N 52°28' E 004°35'0 0.0
2017-Apr-21 14:59N 52°28' E 004°35'0 0.0
2017-Apr-21 14:29N 52°28' E 004°35'0 0.0
2017-Apr-21 13:29N 52°28' E 004°35'0 0.0
2017-Apr-21 12:53N 52°28' E 004°35'0 0.0
2017-Apr-21 12:29N 52°28' E 004°35'0 0.0
2017-Apr-21 11:59N 52°28' E 004°35'0 0.0
2017-Apr-21 11:29N 52°28' E 004°35'0 0.0
2017-Apr-21 10:59N 52°28' E 004°35'0 0.0
2017-Apr-21 10:29N 52°28' E 004°35'0 0.0
2017-Apr-21 09:59N 52°28' E 004°35'0 0.0
2017-Apr-21 09:29N 52°28' E 004°35'0 0.0
2017-Apr-21 08:59N 52°28' E 004°35'0 0.0
2017-Apr-21 08:29N 52°28' E 004°35'0 0.0
2017-Apr-21 07:50N 52°28' E 004°35'0 0.4
2017-Apr-21 07:30N 52°28' E 004°35'611.1
2017-Apr-21 07:00N 52°30' E 004°26'816.2
2017-Apr-21 06:31N 52°36' E 004°17'815.2
2017-Apr-21 06:00N 52°40' E 004°07'815.4
2017-Apr-21 05:30N 52°46' E 003°58'815.6
2017-Apr-21 05:00N 52°51' E 003°49'14118.1
2017-Apr-20 21:13N 54°16' E 000°39'418.0
2017-Apr-20 21:00N 54°18' E 000°33'918.0
2017-Apr-20 20:30N 54°23' E 000°20'917.9
2017-Apr-20 20:00N 54°28' E 000°07'917.8
2017-Apr-20 19:30N 54°33' W 000°06'917.7
2017-Apr-20 19:00N 54°37' W 000°19'2217.6
2017-Apr-20 17:47N 54°49' W 000°50'517.7
2017-Apr-20 17:30N 54°52' W 000°57'917.7
2017-Apr-20 17:00N 54°57' W 001°10'917.6
2017-Apr-20 16:31N 55°01' W 001°23'3 4.7
2017-Apr-20 15:58N 54°59' W 001°27'0 0.0
2017-Apr-20 15:28N 54°59' W 001°27'0 0.0
2017-Apr-20 14:55N 54°59' W 001°27'  

Dump ship's entire track history